Aeroporto :
LOGIN :

Iscrizione | Disclaimer

   EN    FR    IT 

 










Sommario :    VFR   VFR Marginale   IFR   IFR Intensivo   IFR Molto Intensivo
Visibilità : 
Base nubi : 
>= 8 km
>= 3000ft
5 / 8 km
1000 / 3000 ft
1500m / 5 km
500 / 1000 ft
800 / 1500m
200 / 500 ft
< 800m
< 200 ft
Simboli :   Temporali  Nebbia  Neve Forte  Precipitazioni Forti  Vento > 20 kt
SIGMETs :   Varie  Temporali  Ghiacco  Turbolenza  Onda orograficha  Ceneri Vulcaniche






- Altitudine del aeroporto : 650 ft
- Codice IATA : ZJI


LSZL - Locarno

ULTIMO METAR :
  • 200620Z 07003KT 8000 FEW005 BKN065 06/06 Q1015 RMK BLU

METARs OBSOLETI :
  • 200550Z AUTO 00000KT 8000NDV -SHRA SCT049 OVC059 06/06 Q1016 RMK
  • 200520Z AUTO VRB01KT 9999NDV -RA OVC049 06/06 Q1016 RMK
  • 200450Z AUTO VRB01KT 9999NDV OVC052 06/06 Q1016 RMK
  • 200420Z AUTO 05003KT 020V080 9999NDV -SHRA BKN056 06/06 Q1016 RESHRA RMK
  • 200350Z AUTO 05003KT 6000NDV -RA FEW035 BKN055 06/06 Q1016 RERA RMK

TAF TAF LSZL
Valido dal 20 a 06 ore il 20 a 15 ore UTC


200525Z 2006/2015 VRB03KT 9999 FEW030 BKN050
PROB40
TEMPO 2006/2009 4500 SHRA BR BKN012



MetMap, La meteo Aeronautica in un colpo d'occhio ! - Copyright ORBIFLY Dicembre 2007 - Disclaimer

ORBIFLY MET'MAP TEAM :

Programmazione e sviluppo : Alexandra Zaïnal
Concezione e sviluppo : Baudouin d'Aumeries
Co-Programmazione e sviluppo : Marc-Olivier Méhu
Supporto tecnico e logistico : Manuel Goepfert
Aiuto per la traduzione : Arnaldo La Scala

Contatto : metmap@orbifly.com




FONTI E CREDITI :

   NOAA